Time;durP1;ratioP1;P1;durP2;ratioP2;P2;SDS_P1;SDS_P2;PMS_P1;PMS_P2;Temp;Humidity;BMP_temperature;BMP_pressure;BME280_temperature;BME280_humidity;BME280_pressure;Samples;Min_cycle;Max_cycle;Signal;HPM_P1;HPM_P2
2022/08/09 00:00:30;;;;;;;3.75;2.95;;;;;;;13.73;96.54;102636.84;1030943;28;20086;-74
2022/08/09 00:01:04;;;;;;;2.95;2.72;;;;;;;13.68;96.65;102634.72;1022827;29;20522;-74
2022/08/09 00:01:48;;;;;;;3.30;2.97;;;;;;;13.58;97.97;102629.69;1018360;29;20118;-74
2022/08/09 00:02:26;;;;;;;6.68;3.40;;;;;;;13.50;98.70;102648.59;1015280;29;20123;-74
2022/08/09 00:02:57;;;;;;;3.63;3.05;;;;;;;13.39;98.56;102635.69;1020685;28;20043;-74
2022/08/09 00:03:29;;;;;;;4.93;2.33;;;;;;;13.37;99.87;102634.22;1026488;28;20039;-74
2022/08/09 00:04:21;;;;;;;3.38;3.08;;;;;;;13.36;99.57;102633.41;1031209;28;20046;-74
2022/08/09 00:05:06;;;;;;;2.90;2.67;;;;;;;13.27;99.56;102635.38;1031337;28;20045;-73
2022/08/09 00:05:57;;;;;;;3.10;2.80;;;;;;;13.42;99.26;102639.81;1027307;28;20501;-73
2022/08/09 00:06:49;;;;;;;5.97;2.97;;;;;;;13.43;99.09;102633.47;1026395;28;20515;-73
2022/08/09 00:07:23;;;;;;;3.03;2.58;;;;;;;13.46;98.73;102641.13;1027718;28;20124;-73
2022/08/09 00:08:00;;;;;;;2.70;2.50;;;;;;;13.42;98.73;102634.47;1027266;28;20512;-73
2022/08/09 00:08:32;;;;;;;2.40;2.30;;;;;;;13.48;98.56;102631.88;1027304;28;20042;-73
2022/08/09 00:09:03;;;;;;;5.35;3.35;;;;;;;13.48;97.90;102634.56;1022714;29;20043;-74
2022/08/09 00:09:35;;;;;;;4.70;2.78;;;;;;;13.42;97.24;102637.16;1024218;28;20055;-74
2022/08/09 00:10:08;;;;;;;6.90;3.35;;;;;;;13.36;97.86;102635.25;1023237;28;20085;-73
2022/08/09 00:10:47;;;;;;;2.80;2.60;;;;;;;13.43;97.94;102641.50;1024905;28;20051;-74
2022/08/09 00:11:20;;;;;;;4.82;3.42;;;;;;;13.45;99.19;102637.63;1022864;29;20047;-74
2022/08/09 00:11:55;;;;;;;11.10;3.90;;;;;;;13.53;98.73;102633.97;1020027;29;20039;-74
2022/08/09 00:12:34;;;;;;;3.70;3.00;;;;;;;13.55;99.40;102635.44;1023068;29;20459;-74
2022/08/09 00:13:07;;;;;;;3.30;3.00;;;;;;;13.59;99.20;102635.88;1024976;28;20089;-73
2022/08/09 00:13:49;;;;;;;3.63;3.33;;;;;;;13.62;99.05;102638.19;1026414;28;20050;-73
2022/08/09 00:14:22;;;;;;;4.68;2.85;;;;;;;13.56;99.04;102637.09;1018940;29;20043;-73
2022/08/09 00:15:09;;;;;;;4.95;3.13;;;;;;;13.55;99.35;102645.31;1015495;29;20137;-74
2022/08/09 00:15:45;;;;;;;7.95;3.25;;;;;;;13.55;99.15;102634.63;1014868;29;20091;-73
2022/08/09 00:16:33;;;;;;;7.32;3.08;;;;;;;13.62;99.63;102646.22;1019075;29;20517;-74
2022/08/09 00:17:08;;;;;;;4.47;3.35;;;;;;;13.65;99.50;102637.78;1023226;29;20525;-74
2022/08/09 00:18:00;;;;;;;5.95;3.92;;;;;;;13.70;98.83;102638.06;1024917;28;20050;-73
2022/08/09 00:18:42;;;;;;;5.30;3.33;;;;;;;13.65;98.91;102645.81;1023260;29;20050;-74
2022/08/09 00:19:15;;;;;;;3.40;3.10;;;;;;;13.51;98.12;102639.53;1027544;28;20047;-74
2022/08/09 00:19:48;;;;;;;8.25;4.10;;;;;;;13.53;99.17;102633.97;1030817;28;20050;-74
2022/08/09 00:20:22;;;;;;;3.60;3.05;;;;;;;13.43;98.79;102641.50;1027701;28;20449;-73
2022/08/09 00:20:53;;;;;;;3.92;3.30;;;;;;;13.41;99.17;102640.84;1024331;28;20043;-74
2022/08/09 00:21:26;;;;;;;5.70;3.45;;;;;;;13.23;98.89;102642.13;1022811;28;20130;-74
2022/08/09 00:21:58;;;;;;;4.65;3.20;;;;;;;13.25;99.20;102634.75;1019721;29;20055;-74
2022/08/09 00:22:33;;;;;;;4.53;3.53;;;;;;;13.16;100.00;102641.22;1023944;28;20657;-73
2022/08/09 00:23:06;;;;;;;5.68;3.53;;;;;;;13.11;100.00;102638.25;1031152;28;20521;-73
2022/08/09 00:23:58;;;;;;;3.22;3.03;;;;;;;13.10;100.00;102636.59;1034989;28;20042;-74
2022/08/09 00:24:31;;;;;;;5.53;3.17;;;;;;;13.09;100.00;102634.94;1029466;28;20193;-74
2022/08/09 00:25:03;;;;;;;5.45;4.18;;;;;;;13.08;100.00;102633.28;1019500;29;20093;-74
2022/08/09 00:25:43;;;;;;;3.13;2.90;;;;;;;13.08;100.00;102627.91;1019036;29;20075;-74
2022/08/09 00:26:22;;;;;;;3.47;3.17;;;;;;;13.05;100.00;102635.50;1021761;29;20055;-74
2022/08/09 00:27:03;;;;;;;3.33;3.03;;;;;;;12.96;100.00;102634.78;1026701;28;20046;-74
2022/08/09 00:27:35;;;;;;;3.40;3.15;;;;;;;13.00;100.00;102630.72;1030884;28;20046;-74
2022/08/09 00:28:13;;;;;;;5.05;3.60;;;;;;;13.02;100.00;102628.69;1027058;28;20063;-74
2022/08/09 00:28:46;;;;;;;3.33;2.90;;;;;;;12.99;100.00;102631.75;1021967;29;20566;-74
2022/08/09 00:29:24;;;;;;;3.17;2.88;;;;;;;13.01;100.00;102627.03;1023374;29;20197;-73
2022/08/09 00:30:15;;;;;;;8.32;2.97;;;;;;;13.04;100.00;102625.81;1026865;28;20046;-73
2022/08/09 00:30:57;;;;;;;3.05;2.85;;;;;;;13.09;100.00;102631.44;1022396;28;20097;-74
2022/08/09 00:31:29;;;;;;;5.22;3.38;;;;;;;13.16;100.00;102630.50;1023233;28;20043;-74
2022/08/09 00:32:21;;;;;;;4.75;3.03;;;;;;;13.26;100.00;102636.41;1020571;29;20050;-74
2022/08/09 00:32:59;;;;;;;6.88;3.65;;;;;;;13.29;100.00;102636.00;1025241;28;20094;-74
2022/08/09 00:33:31;;;;;;;4.00;3.30;;;;;;;13.36;100.00;102635.25;1023331;29;20174;-73
2022/08/09 00:34:22;;;;;;;5.68;3.17;;;;;;;13.31;100.00;102633.16;1026999;28;20104;-74
2022/08/09 00:34:56;;;;;;;4.28;3.70;;;;;;;13.37;100.00;102642.25;1026784;28;20506;-74
2022/08/09 00:35:29;;;;;;;4.65;3.50;;;;;;;13.43;100.00;102636.16;1026773;28;20121;-74
2022/08/09 00:36:14;;;;;;;6.30;3.50;;;;;;;13.45;100.00;102634.13;1026906;28;20125;-75
2022/08/09 00:36:47;;;;;;;4.07;3.67;;;;;;;13.38;100.00;102641.22;1029869;28;20038;-73
2022/08/09 00:37:19;;;;;;;4.13;3.35;;;;;;;13.40;99.68;102641.88;1030979;28;20042;-73
2022/08/09 00:37:51;;;;;;;5.63;3.17;;;;;;;13.35;99.72;102639.78;1030762;28;20049;-74
2022/08/09 00:38:24;;;;;;;5.90;3.65;;;;;;;13.40;99.49;102645.38;1022910;29;20526;-73
2022/08/09 00:38:57;;;;;;;3.40;3.20;;;;;;;13.36;99.47;102640.59;1019058;29;20039;-74
2022/08/09 00:39:29;;;;;;;5.43;3.53;;;;;;;13.34;99.09;102642.63;1016364;29;20116;-74
2022/08/09 00:40:21;;;;;;;6.30;3.53;;;;;;;13.29;99.67;102636.00;1025506;28;20049;-74
2022/08/09 00:41:00;;;;;;;6.25;3.35;;;;;;;13.29;99.63;102635.19;1027175;28;20047;-74
2022/08/09 00:41:35;;;;;;;4.03;3.33;;;;;;;13.33;99.21;102641.81;1029823;28;20077;-73
2022/08/09 00:42:27;;;;;;;3.50;3.20;;;;;;;13.26;98.57;102625.69;1031718;28;20046;-73
2022/08/09 00:43:22;;;;;;;4.15;3.58;;;;;;;13.39;98.79;102634.84;1029314;28;20053;-74
2022/08/09 00:44:14;;;;;;;3.72;3.42;;;;;;;13.38;99.48;102633.19;1029129;28;20051;-74
2022/08/09 00:44:58;;;;;;;5.78;4.13;;;;;;;13.39;99.67;102634.84;1023380;29;20498;-73
2022/08/09 00:45:34;;;;;;;3.63;3.30;;;;;;;13.37;99.21;102634.22;1022699;29;20133;-74
2022/08/09 00:46:08;;;;;;;3.92;3.10;;;;;;;13.36;99.08;102641.44;1018925;29;20134;-74
2022/08/09 00:46:42;;;;;;;5.07;3.13;;;;;;;13.34;98.67;102626.56;1025039;28;20035;-73
2022/08/09 00:47:32;;;;;;;4.30;3.63;;;;;;;13.38;98.66;102635.88;1028732;28;20050;-74
2022/08/09 00:48:10;;;;;;;3.55;3.25;;;;;;;13.40;99.06;102633.84;1031870;28;20457;-74
2022/08/09 00:48:49;;;;;;;3.50;3.20;;;;;;;13.40;98.86;102636.50;1030245;28;20039;-74
2022/08/09 00:49:26;;;;;;;6.80;3.40;;;;;;;13.35;98.18;102636.25;1027178;28;20095;-74
2022/08/09 00:49:58;;;;;;;2.97;2.70;;;;;;;13.26;97.98;102633.72;1027625;28;20050;-74
2022/08/09 00:50:31;;;;;;;3.25;2.95;;;;;;;13.23;97.80;102636.78;1030006;28;20548;-74
2022/08/09 00:51:06;;;;;;;3.30;3.00;;;;;;;13.25;97.49;102640.09;1026704;28;20035;-74
2022/08/09 00:51:43;;;;;;;9.05;4.88;;;;;;;13.25;97.84;102640.09;1023061;29;20039;-73
2022/08/09 00:52:28;;;;;;;13.85;5.30;;;;;;;13.19;97.91;102646.22;1025911;28;20039;-73
2022/08/09 00:53:01;;;;;;;41.78;6.72;;;;;;;13.23;98.01;102642.13;1030566;28;20132;-74
2022/08/09 00:53:42;;;;;;;;;;;;;;;13.25;98.30;102639.25;1026982;28;20043;-74
2022/08/09 00:54:17;;;;;;;23.08;5.00;;;;;;;13.29;98.63;102641.38;1026801;28;19929;-74
2022/08/09 00:54:50;;;;;;;18.88;4.38;;;;;;;13.24;98.62;102646.47;1028217;28;20042;-74
2022/08/09 00:55:23;;;;;;;22.13;5.80;;;;;;;13.16;98.53;102646.56;1027265;28;20058;-74
2022/08/09 00:56:15;;;;;;;20.27;6.35;;;;;;;13.15;98.86;102642.22;1024210;28;20047;-74
2022/08/09 00:56:47;;;;;;;21.65;5.72;;;;;;;13.16;98.36;102646.56;1018930;29;20130;-73
2022/08/09 00:57:21;;;;;;;17.10;4.88;;;;;;;13.20;98.54;102642.50;1022535;29;20051;-74
2022/08/09 00:58:04;;;;;;;15.27;4.78;;;;;;;13.16;98.63;102641.22;1019081;29;20048;-74
2022/08/09 00:58:39;;;;;;;21.13;4.95;;;;;;;13.06;98.85;102646.00;1021444;29;20050;-74
2022/08/09 00:59:11;;;;;;;23.33;4.65;;;;;;;13.04;99.48;102642.69;1023799;28;20034;-74
2022/08/09 00:59:50;;;;;;;11.88;4.25;;;;;;;13.12;99.53;102639.91;1026708;28;20491;-74
2022/08/09 01:00:23;;;;;;;17.80;4.50;;;;;;;13.14;99.72;102643.22;1027247;28;20043;-74
2022/08/09 01:00:55;;;;;;;14.35;4.63;;;;;;;12.96;99.54;102640.16;1030554;28;20057;-74
2022/08/09 01:01:34;;;;;;;24.88;4.95;;;;;;;12.95;99.46;102638.47;1030945;28;20125;-73
2022/08/09 01:02:27;;;;;;;12.80;4.35;;;;;;;13.03;100.00;102641.03;1030430;28;20498;-74
2022/08/09 01:03:15;;;;;;;13.48;4.28;;;;;;;13.02;99.44;102644.72;1025077;28;20058;-74
2022/08/09 01:03:54;;;;;;;19.80;6.07;;;;;;;13.04;99.31;102642.69;1023785;28;20122;-74
2022/08/09 01:04:31;;;;;;;16.80;5.40;;;;;;;13.00;98.81;102646.78;1015133;29;20079;-74
2022/08/09 01:05:11;;;;;;;8.20;4.88;;;;;;;13.00;99.14;102641.41;1015046;29;20530;-73
2022/08/09 01:06:07;;;;;;;21.85;5.32;;;;;;;12.98;98.97;102635.44;1015167;29;20044;-74
2022/08/09 01:06:57;;;;;;;10.70;4.93;;;;;;;12.92;99.49;102644.22;1028971;28;20441;-73
2022/08/09 01:07:50;;;;;;;11.40;4.50;;;;;;;13.01;99.02;102643.06;1027754;28;20038;-74
2022/08/09 01:08:58;;;;;;;7.93;4.18;;;;;;;13.08;99.97;102638.63;1028660;28;20043;-73
2022/08/09 01:09:58;;;;;;;4.43;3.35;;;;;;;13.04;100.00;102645.38;1023204;28;20044;-74
2022/08/09 01:10:56;;;;;;;4.20;3.83;;;;;;;13.07;100.00;102645.00;1025035;28;20039;-74
2022/08/09 01:12:03;;;;;;;3.55;3.25;;;;;;;12.98;99.97;102643.47;1025029;28;20044;-74
2022/08/09 01:12:45;;;;;;;6.72;3.63;;;;;;;12.96;99.32;102648.16;1018757;29;20052;-73
2022/08/09 01:13:30;;;;;;;4.47;3.33;;;;;;;13.03;100.00;102654.41;1021438;28;20079;-74
2022/08/09 01:14:40;;;;;;;3.80;3.50;;;;;;;13.02;100.00;102650.09;1021473;29;20047;-74
2022/08/09 01:15:16;;;;;;;3.85;3.35;;;;;;;13.04;100.00;102652.56;1023137;29;20043;-74
2022/08/09 01:15:51;;;;;;;3.67;3.38;;;;;;;13.05;100.00;102655.06;1027128;28;20495;-74
2022/08/09 01:16:29;;;;;;;3.45;3.05;;;;;;;13.07;100.00;102652.19;1026453;28;20039;-74
2022/08/09 01:17:08;;;;;;;4.28;3.65;;;;;;;13.10;100.00;102652.63;1022837;28;20050;-74
2022/08/09 01:18:02;;;;;;;8.05;3.17;;;;;;;12.94;100.00;102648.34;1024778;28;20493;-74
2022/08/09 01:18:36;;;;;;;3.80;3.38;;;;;;;12.99;100.00;102651.28;1027277;28;20039;-74
2022/08/09 01:19:43;;;;;;;3.55;3.25;;;;;;;13.04;100.00;102653.41;1029668;28;20411;-73
2022/08/09 01:20:49;;;;;;;3.40;3.10;;;;;;;13.02;100.00;102652.75;1027067;28;20426;-74
2022/08/09 01:21:47;;;;;;;5.55;3.38;;;;;;;12.98;100.00;102649.63;1022857;28;20058;-73
2022/08/09 01:22:47;;;;;;;4.00;3.58;;;;;;;12.94;100.00;102653.72;1022000;29;20363;-74
2022/08/09 01:23:37;;;;;;;3.72;3.00;;;;;;;12.85;99.91;102653.97;1026858;28;20049;-73
2022/08/09 01:24:50;;;;;;;3.22;2.95;;;;;;;12.90;100.00;102651.59;1028110;28;20038;-74
2022/08/09 01:25:50;;;;;;;3.38;2.97;;;;;;;12.89;100.00;102655.28;1029753;28;20793;-74
2022/08/09 01:26:53;;;;;;;3.13;2.83;;;;;;;12.82;99.57;102654.34;1027776;28;20352;-73
2022/08/09 01:27:26;;;;;;;4.85;3.10;;;;;;;12.90;99.35;102651.59;1030492;28;20042;-74
2022/08/09 01:28:00;;;;;;;3.78;3.30;;;;;;;12.88;99.63;102654.47;1031232;28;20301;-73
2022/08/09 01:28:36;;;;;;;3.95;3.65;;;;;;;12.87;99.80;102649.28;1026985;28;20317;-73
2022/08/09 01:29:11;;;;;;;4.38;4.05;;;;;;;12.86;100.00;102651.13;1026853;28;20039;-74
2022/08/09 01:29:50;;;;;;;3.90;3.38;;;;;;;12.89;99.89;102649.94;1023081;29;20047;-73
2022/08/09 01:30:29;;;;;;;4.68;3.50;;;;;;;12.88;100.00;102649.13;1020000;29;20292;-74
2022/08/09 01:31:25;;;;;;;3.28;3.05;;;;;;;12.82;99.35;102654.34;1019899;29;20079;-74
2022/08/09 01:32:18;;;;;;;6.28;3.40;;;;;;;12.69;99.50;102653.19;1026119;28;20050;-73
2022/08/09 01:33:07;;;;;;;4.05;3.75;;;;;;;12.72;99.60;102653.81;1025805;28;20518;-73
2022/08/09 01:33:44;;;;;;;4.30;3.90;;;;;;;12.75;99.56;102653.44;1025587;28;20137;-74
2022/08/09 01:34:17;;;;;;;6.35;3.33;;;;;;;12.68;99.66;102648.84;1023920;29;20534;-74
2022/08/09 01:34:52;;;;;;;3.72;3.38;;;;;;;12.70;99.95;102643.31;1029550;28;20043;-73
2022/08/09 01:35:30;;;;;;;3.70;3.40;;;;;;;12.78;100.00;102647.72;1031546;28;20042;-73
2022/08/09 01:36:14;;;;;;;4.75;3.35;;;;;;;12.63;99.37;102648.59;1030274;28;20042;-74
2022/08/09 01:36:47;;;;;;;4.35;3.42;;;;;;;12.70;99.79;102640.66;1025548;28;20130;-73
2022/08/09 01:37:19;;;;;;;3.85;3.55;;;;;;;12.61;99.80;102642.59;1027175;28;20410;-74
2022/08/09 01:38:18;;;;;;;3.28;3.08;;;;;;;12.68;100.00;102643.50;1023135;29;20495;-74
2022/08/09 01:38:50;;;;;;;3.45;3.15;;;;;;;12.56;100.00;102646.81;1027545;28;20402;-74
2022/08/09 01:39:23;;;;;;;3.53;3.22;;;;;;;12.59;100.00;102647.25;1023582;29;20092;-74
2022/08/09 01:39:59;;;;;;;3.92;3.53;;;;;;;12.54;100.00;102647.00;1021499;28;20054;-74
2022/08/09 01:40:34;;;;;;;3.03;2.83;;;;;;;12.45;99.87;102648.13;1025601;28;20114;-73
2022/08/09 01:41:12;;;;;;;6.28;3.90;;;;;;;12.43;100.00;102643.97;1029144;28;20046;-73
2022/08/09 01:41:44;;;;;;;6.65;3.78;;;;;;;12.41;100.00;102652.19;1031736;28;20047;-74
2022/08/09 01:42:31;;;;;;;14.68;3.97;;;;;;;12.28;100.00;102646.63;1031976;28;20301;-74
2022/08/09 01:43:06;;;;;;;4.85;3.75;;;;;;;12.26;100.00;102648.66;1031957;28;20105;-74
2022/08/09 01:43:41;;;;;;;3.95;3.60;;;;;;;12.31;100.00;102651.59;1030495;28;20034;-74
2022/08/09 01:44:22;;;;;;;3.70;3.40;;;;;;;12.17;100.00;102644.41;1027954;28;20055;-74
2022/08/09 01:44:55;;;;;;;4.85;3.72;;;;;;;12.09;100.00;102655.19;1027243;28;20301;-73
2022/08/09 01:45:30;;;;;;;7.00;4.43;;;;;;;12.09;100.00;102647.19;1027592;28;20051;-74
2022/08/09 01:46:02;;;;;;;7.25;3.97;;;;;;;12.15;100.00;102641.94;1025938;28;20122;-74
2022/08/09 01:46:37;;;;;;;5.07;3.65;;;;;;;11.94;100.00;102642.63;1026790;28;20102;-73
2022/08/09 01:47:10;;;;;;;4.78;4.35;;;;;;;11.88;100.00;102635.34;1019092;28;20102;-74
2022/08/09 01:47:43;;;;;;;4.03;3.72;;;;;;;11.93;100.00;102640.13;1018182;29;20087;-74
2022/08/09 01:48:17;;;;;;;5.32;3.88;;;;;;;11.96;100.00;102637.91;1022085;29;20142;-73
2022/08/09 01:48:58;;;;;;;3.78;3.47;;;;;;;11.98;100.00;102640.41;1023549;29;20047;-73
2022/08/09 01:49:42;;;;;;;4.30;3.90;;;;;;;11.93;100.00;102640.97;1020365;29;20307;-73
2022/08/09 01:50:25;;;;;;;5.30;4.05;;;;;;;11.96;100.00;102637.91;1027705;28;20074;-74
2022/08/09 01:51:12;;;;;;;4.43;3.83;;;;;;;11.91;100.00;102634.97;1023464;29;20190;-74
2022/08/09 01:51:55;;;;;;;5.43;4.43;;;;;;;11.93;100.00;102637.47;1024710;28;20450;-74
2022/08/09 01:52:27;;;;;;;4.53;4.07;;;;;;;11.98;100.00;102641.25;1027398;28;20050;-74
2022/08/09 01:53:01;;;;;;;3.75;3.45;;;;;;;11.99;100.00;102640.22;1025732;28;20690;-74
2022/08/09 01:53:52;;;;;;;4.60;4.20;;;;;;;12.11;100.00;102634.47;1027787;28;20075;-74
2022/08/09 01:54:41;;;;;;;4.78;4.28;;;;;;;12.22;100.00;102640.19;1021571;29;20296;-73
2022/08/09 01:55:14;;;;;;;6.07;4.22;;;;;;;12.24;100.00;102645.34;1026041;28;20061;-73
2022/08/09 01:55:46;;;;;;;4.22;3.83;;;;;;;12.26;100.00;102638.78;1019277;29;20055;-74
2022/08/09 01:56:18;;;;;;;5.25;4.38;;;;;;;12.29;100.00;102632.25;1023640;28;20105;-73
2022/08/09 01:56:51;;;;;;;4.50;4.10;;;;;;;12.28;100.00;102641.28;1021597;29;20054;-74
2022/08/09 01:57:27;;;;;;;5.30;4.75;;;;;;;12.33;100.00;102642.41;1023952;28;20499;-74
2022/08/09 01:58:00;;;;;;;4.50;4.10;;;;;;;12.40;100.00;102645.16;1025971;28;20039;-73
2022/08/09 01:58:35;;;;;;;4.07;3.70;;;;;;;12.41;100.00;102644.16;1023393;28;20187;-74
2022/08/09 01:59:10;;;;;;;6.57;4.70;;;;;;;12.42;100.00;102643.16;1024893;28;20122;-73
2022/08/09 01:59:49;;;;;;;4.28;3.97;;;;;;;12.46;100.00;102643.59;1023344;29;20311;-73
2022/08/09 02:00:23;;;;;;;6.25;4.50;;;;;;;12.44;100.00;102651.81;1020994;29;20036;-74
2022/08/09 02:01:07;;;;;;;3.85;3.55;;;;;;;12.48;100.00;102647.75;1020037;29;20048;-73
2022/08/09 02:01:40;;;;;;;5.38;4.05;;;;;;;12.41;100.00;102646.84;1022463;29;20067;-73
2022/08/09 02:02:34;;;;;;;5.13;4.63;;;;;;;12.43;100.00;102650.16;1029009;28;20043;-74
2022/08/09 02:03:06;;;;;;;5.85;4.07;;;;;;;12.37;100.00;102645.53;1031237;28;20046;-74
2022/08/09 02:03:45;;;;;;;3.90;3.60;;;;;;;12.37;100.00;102642.88;1031417;28;20498;-74
2022/08/09 02:04:19;;;;;;;3.53;3.13;;;;;;;12.37;100.00;102650.88;1031759;28;20172;-74
2022/08/09 02:04:53;;;;;;;4.72;3.35;;;;;;;12.39;100.00;102648.84;1031691;28;20104;-74
2022/08/09 02:05:29;;;;;;;3.38;3.17;;;;;;;12.44;100.00;102650.97;1029246;28;20042;-74
2022/08/09 02:06:09;;;;;;;4.32;3.47;;;;;;;12.47;100.00;102647.94;1031937;28;20060;-74
2022/08/09 02:07:35;;;;;;;3.55;3.25;;;;;;;12.46;100.00;102649.78;1027391;28;20782;-73
2022/08/09 02:08:28;;;;;;;3.85;3.55;;;;;;;12.41;100.00;102659.38;1028066;28;20193;-74
2022/08/09 02:09:21;;;;;;;3.85;3.55;;;;;;;12.29;100.00;102656.28;1031747;28;20170;-74
2022/08/09 02:09:56;;;;;;;6.60;3.30;;;;;;;12.31;100.00;102656.94;1025877;28;20039;-74
2022/08/09 02:10:36;;;;;;;3.85;3.40;;;;;;;12.24;100.00;102656.03;1023776;28;20059;-73
2022/08/09 02:11:09;;;;;;;3.78;3.47;;;;;;;12.19;100.00;102658.41;1023460;29;20043;-74
2022/08/09 02:11:48;;;;;;;7.53;3.38;;;;;;;12.22;100.00;102658.03;1026970;28;20039;-74
2022/08/09 02:12:21;;;;;;;6.53;3.13;;;;;;;12.23;100.00;102651.69;1030243;28;20173;-73
2022/08/09 02:12:54;;;;;;;3.85;2.88;;;;;;;12.28;100.00;102657.31;1027095;28;20525;-74
2022/08/09 02:13:27;;;;;;;4.75;3.47;;;;;;;12.23;100.00;102652.53;1023594;29;20996;-73
2022/08/09 02:14:13;;;;;;;3.95;2.97;;;;;;;12.22;100.00;102655.38;1018075;29;20170;-74
2022/08/09 02:14:49;;;;;;;3.70;3.10;;;;;;;12.16;100.00;102653.44;1022685;29;20103;-74
2022/08/09 02:15:23;;;;;;;4.45;3.33;;;;;;;12.19;100.00;102651.22;1022762;29;20046;-74
2022/08/09 02:16:08;;;;;;;6.13;3.15;;;;;;;12.22;100.00;102650.03;1027598;28;20043;-73
2022/08/09 02:16:41;;;;;;;4.28;3.85;;;;;;;12.25;100.00;102653.16;1027105;28;20072;-73
2022/08/09 02:17:33;;;;;;;7.88;3.10;;;;;;;12.22;100.00;102652.69;1029456;28;20046;-74
2022/08/09 02:18:27;;;;;;;4.13;2.67;;;;;;;12.05;100.00;102660.91;1031812;28;20042;-74
2022/08/09 02:18:59;;;;;;;5.55;3.13;;;;;;;12.07;100.00;102653.53;1025904;28;20318;-74
2022/08/09 02:19:31;;;;;;;3.55;3.25;;;;;;;12.10;100.00;102656.84;1023196;28;20050;-74
2022/08/09 02:20:11;;;;;;;3.58;3.17;;;;;;;12.12;100.00;102657.50;1022973;28;20043;-73
2022/08/09 02:20:50;;;;;;;3.92;3.63;;;;;;;12.03;100.00;102660.22;1022232;28;20438;-73
2022/08/09 02:21:23;;;;;;;6.43;3.63;;;;;;;11.89;100.00;102653.00;1025355;28;20058;-74
2022/08/09 02:22:03;;;;;;;6.22;3.78;;;;;;;11.96;100.00;102658.47;1021494;29;20060;-74
2022/08/09 02:22:47;;;;;;;3.75;3.35;;;;;;;12.01;100.00;102656.91;1026548;28;20074;-74
2022/08/09 02:23:39;;;;;;;4.10;3.50;;;;;;;11.92;100.00;102667.84;1027492;28;20043;-74
2022/08/09 02:24:20;;;;;;;3.70;3.40;;;;;;;11.86;100.00;102648.03;1027616;28;20126;-74
2022/08/09 02:24:59;;;;;;;3.45;3.15;;;;;;;11.85;100.00;102657.06;1031531;28;20047;-73
2022/08/09 02:25:34;;;;;;;3.60;3.35;;;;;;;11.84;100.00;102655.41;1027165;28;20049;-74
2022/08/09 02:26:20;;;;;;;3.25;3.03;;;;;;;11.85;100.00;102654.38;1021626;29;20435;-74
2022/08/09 02:27:01;;;;;;;4.50;3.60;;;;;;;11.90;100.00;102649.34;1023516;29;20035;-73
2022/08/09 02:27:33;;;;;;;3.75;3.17;;;;;;;11.79;100.00;102657.78;1020917;29;20039;-74
2022/08/09 02:28:33;;;;;;;7.18;3.10;;;;;;;11.85;100.00;102658.91;1023971;28;20411;-74
2022/08/09 02:29:16;;;;;;;5.30;3.75;;;;;;;11.84;100.00;102649.22;1027980;28;20297;-74
2022/08/09 02:29:50;;;;;;;4.55;3.58;;;;;;;11.81;100.00;102647.75;1033458;28;20046;-74
2022/08/09 02:30:23;;;;;;;4.30;3.95;;;;;;;11.85;100.00;102651.72;1031730;28;20371;-74
2022/08/09 02:31:20;;;;;;;6.07;3.88;;;;;;;11.95;100.00;102648.78;1031307;28;20551;-74
2022/08/09 02:31:58;;;;;;;6.07;4.35;;;;;;;11.98;100.00;102649.25;1027521;28;20405;-74
2022/08/09 02:32:31;;;;;;;4.78;4.13;;;;;;;12.03;100.00;102646.88;1027415;28;20070;-74
2022/08/09 02:33:04;;;;;;;5.88;4.35;;;;;;;12.07;100.00;102655.38;1023427;29;20043;-74
2022/08/09 02:33:42;;;;;;;6.13;5.35;;;;;;;12.12;100.00;102652.16;1021468;28;20096;-74
2022/08/09 02:34:35;;;;;;;5.93;3.58;;;;;;;12.04;100.00;102656.53;1025898;28;20299;-74
2022/08/09 02:35:23;;;;;;;4.13;3.75;;;;;;;12.11;100.00;102655.84;1032254;28;20781;-74
2022/08/09 02:36:19;;;;;;;4.82;3.92;;;;;;;12.17;100.00;102652.44;1030415;28;20042;-74
2022/08/09 02:36:53;;;;;;;5.65;4.05;;;;;;;12.15;100.00;102651.78;1029609;28;20291;-74
2022/08/09 02:37:30;;;;;;;4.68;4.28;;;;;;;12.19;100.00;102653.91;1027189;28;20042;-74
2022/08/09 02:38:03;;;;;;;6.45;4.32;;;;;;;12.22;100.00;102653.53;1027404;28;20129;-74
2022/08/09 02:38:44;;;;;;;6.13;4.22;;;;;;;12.27;100.00;102652.97;1023619;28;20044;-73
2022/08/09 02:39:23;;;;;;;4.95;4.55;;;;;;;12.29;100.00;102650.94;1023376;29;20043;-73
2022/08/09 02:40:13;;;;;;;7.30;4.63;;;;;;;12.33;100.00;102654.94;1023982;28;20039;-74
2022/08/09 02:41:01;;;;;;;7.72;5.65;;;;;;;12.31;100.00;102656.94;1027513;28;20841;-74
2022/08/09 02:41:49;;;;;;;5.63;5.13;;;;;;;12.21;100.00;102656.38;1024643;28;20062;-74
2022/08/09 02:42:27;;;;;;;5.20;4.32;;;;;;;12.15;100.00;102643.75;1023662;29;20055;-74
2022/08/09 02:43:00;;;;;;;7.38;4.22;;;;;;;12.17;100.00;102649.75;1019379;29;20500;-74
2022/08/09 02:43:33;;;;;;;4.93;4.53;;;;;;;12.22;100.00;102642.03;1026806;28;20049;-74
2022/08/09 02:44:27;;;;;;;5.80;4.15;;;;;;;12.21;100.00;102640.34;1027409;28;20058;-73
2022/08/09 02:45:04;;;;;;;4.50;4.10;;;;;;;12.01;100.00;102651.56;1027037;28;20062;-74
2022/08/09 02:45:41;;;;;;;6.53;4.10;;;;;;;11.88;100.00;102643.34;1027707;28;20078;-74
2022/08/09 02:46:16;;;;;;;5.03;4.43;;;;;;;11.91;100.00;102645.66;1031614;28;20429;-74
2022/08/09 02:46:51;;;;;;;5.30;4.80;;;;;;;11.98;100.00;102640.41;1029555;28;20050;-74
2022/08/09 02:47:23;;;;;;;4.95;4.45;;;;;;;12.03;100.00;102638.84;1027072;28;20133;-74
2022/08/09 02:48:02;;;;;;;5.50;4.95;;;;;;;12.10;100.00;102638.16;1027324;28;20045;-74
2022/08/09 02:48:35;;;;;;;8.43;5.45;;;;;;;12.11;100.00;102640.63;1025176;28;20052;-74
2022/08/09 02:49:10;;;;;;;5.25;4.75;;;;;;;12.14;100.00;102639.44;1025455;28;20039;-74
2022/08/09 02:50:01;;;;;;;6.43;4.65;;;;;;;12.12;100.00;102641.47;1023523;29;20043;-74
2022/08/09 02:50:50;;;;;;;5.60;4.53;;;;;;;12.14;100.00;102639.44;1015327;29;20304;-74
2022/08/09 02:51:30;;;;;;;5.53;4.25;;;;;;;12.17;100.00;102637.22;1024254;28;20859;-74
2022/08/09 02:52:12;;;;;;;4.60;4.15;;;;;;;12.17;100.00;102639.91;1020373;29;20565;-73
2022/08/09 02:52:49;;;;;;;4.53;4.13;;;;;;;12.19;100.00;102642.38;1019412;29;20043;-74
2022/08/09 02:53:32;;;;;;;5.32;4.18;;;;;;;12.22;100.00;102642.84;1019503;29;20040;-74
2022/08/09 02:54:05;;;;;;;5.45;4.68;;;;;;;12.25;100.00;102641.66;1023011;28;20044;-73
2022/08/09 02:54:38;;;;;;;7.30;4.70;;;;;;;12.27;100.00;102648.47;1023415;29;20043;-74
2022/08/09 02:55:28;;;;;;;4.68;4.15;;;;;;;12.17;100.00;102639.91;1026030;28;20988;-74
2022/08/09 02:56:21;;;;;;;5.47;4.40;;;;;;;12.07;100.00;102640.16;1021070;29;20732;-74
2022/08/09 02:56:54;;;;;;;4.63;4.22;;;;;;;11.94;100.00;102639.13;1025022;28;20042;-74
2022/08/09 02:57:31;;;;;;;4.60;4.20;;;;;;;11.78;100.00;102634.78;1026796;28;20343;-74
2022/08/09 02:58:25;;;;;;;4.43;3.95;;;;;;;11.84;100.00;102639.38;1022364;28;20031;-74
2022/08/09 02:59:09;;;;;;;5.60;4.07;;;;;;;11.91;100.00;102637.63;1027624;28;20034;-74
2022/08/09 02:59:57;;;;;;;5.18;4.68;;;;;;;11.93;100.00;102643.63;1026201;28;20122;-74
2022/08/09 03:00:50;;;;;;;3.47;3.17;;;;;;;11.90;100.00;102637.81;1027729;28;20305;-74
2022/08/09 03:01:31;;;;;;;3.78;3.00;;;;;;;11.88;100.00;102634.50;1027514;28;20360;-74
2022/08/09 03:02:23;;;;;;;4.07;3.78;;;;;;;11.88;100.00;102640.69;1030613;28;20050;-74
2022/08/09 03:02:56;;;;;;;4.30;3.80;;;;;;;11.90;100.00;102641.31;1031398;28;20172;-74
2022/08/09 03:03:32;;;;;;;5.40;4.00;;;;;;;11.90;100.00;102635.97;1030987;28;20536;-74
2022/08/09 03:04:24;;;;;;;6.28;4.30;;;;;;;11.95;100.00;102636.25;1027179;28;20545;-74
2022/08/09 03:04:59;;;;;;;4.65;3.92;;;;;;;11.99;100.00;102637.56;1023392;28;20318;-73
2022/08/09 03:05:32;;;;;;;4.57;4.28;;;;;;;11.99;100.00;102632.22;1023722;29;20096;-74
2022/08/09 03:06:06;;;;;;;4.45;3.60;;;;;;;11.98;100.00;102630.56;1023388;29;20039;-73
2022/08/09 03:06:39;;;;;;;5.63;4.13;;;;;;;12.02;100.00;102631.84;1020935;29;20074;-74
2022/08/09 03:07:11;;;;;;;8.75;4.45;;;;;;;12.02;100.00;102631.84;1022989;28;20302;-74